Jerry W. Tichenor — WDB9187 — position and weather

sailwx.info

Track history (hours):
 
Tides and Currents Weather Stations Pressure Air Temp Water Temp Dewpoint Dewpoint Depression Visibility Wind Speed Wind Dir Waves Ship Positions

Jerry W. Tichenor

Owner: Blessey Enterprises, Inc., harahan, LA. More information available from US FCC via Universal Licensing System and Coast Guard Vessel Documentation Center.

Last reported at 2018-Jun-25 09:18 UTC. Time now 2018-Jun-25 10:07 UTC.
Position N 28°54' W 095°22'.

Length 92 m; draft 9.6 m.

Type: Towing. MMSI: 366971520.

Date/timePositionNaut miles runAvg speedWind from/ knotsBaromVisibWave heightAir tempDewpointWater temp
2018-Jun-25 09:18N 28°54' W 095°22'2 0.0
2018-Jun-23 12:04N 28°54' W 095°24'2 0.3
2018-Jun-23 06:43N 28°54' W 095°22'1 1.7
2018-Jun-23 06:23N 28°55' W 095°21'3 5.9
2018-Jun-23 05:51N 28°57' W 095°19'2 4.8
2018-Jun-23 05:30N 28°58' W 095°17'2 4.7
2018-Jun-23 05:00N 28°60' W 095°15'3 5.5
2018-Jun-23 04:30N 29°02' W 095°14'3 5.9
2018-Jun-23 04:00N 29°05' W 095°13'3 5.7
2018-Jun-23 03:30N 29°07' W 095°11'3 5.8
2018-Jun-23 03:00N 29°09' W 095°09'3 6.1
2018-Jun-23 02:29N 29°11' W 095°06'3 6.2
2018-Jun-23 02:00N 29°12' W 095°03'3 5.7
2018-Jun-23 01:30N 29°15' W 095°01'3 5.7
2018-Jun-23 01:00N 29°17' W 094°59'2 4.7
2018-Jun-23 00:30N 29°17' W 094°56'2 4.4
2018-Jun-23 00:00N 29°18' W 094°53'3 5.0
2018-Jun-22 23:30N 29°19' W 094°51'3 5.0
2018-Jun-22 23:01N 29°21' W 094°49'0 0.2
2018-Jun-22 22:30N 29°21' W 094°49'0 0.2
2018-Jun-22 22:00N 29°21' W 094°49'3 6.7
2018-Jun-22 21:30N 29°19' W 094°52'3 6.4
2018-Jun-22 21:00N 29°17' W 094°56'3 6.8
2018-Jun-22 20:30N 29°16' W 094°59'3 6.6
2018-Jun-22 20:00N 29°14' W 095°02'3 6.4
2018-Jun-22 19:30N 29°12' W 095°04'3 5.9
2018-Jun-22 19:00N 29°10' W 095°07'3 6.4
2018-Jun-22 18:30N 29°08' W 095°10'3 5.8
2018-Jun-22 18:00N 29°06' W 095°12'4 6.8
2018-Jun-22 17:27N 29°02' W 095°14'3 7.1
2018-Jun-22 17:00N 28°60' W 095°15'4 7.1
2018-Jun-22 16:30N 28°57' W 095°18'6 0.1
2018-Jun-20 21:55N 28°54' W 095°24'4 4.2
2018-Jun-20 20:58N 28°56' W 095°20'3 5.5
2018-Jun-20 20:30N 28°57' W 095°18'3 5.8
2018-Jun-20 19:58N 28°60' W 095°15'3 6.1
2018-Jun-20 19:30N 29°02' W 095°14'3 5.8
2018-Jun-20 19:00N 29°05' W 095°12'3 5.6
2018-Jun-20 18:30N 29°07' W 095°11'3 5.9
2018-Jun-20 18:00N 29°09' W 095°09'3 6.0
2018-Jun-20 17:30N 29°11' W 095°06'3 6.1
2018-Jun-20 17:00N 29°12' W 095°03'3 5.8
2018-Jun-20 16:30N 29°15' W 095°01'3 5.7
2018-Jun-20 16:00N 29°17' W 094°58'3 6.0
2018-Jun-20 15:30N 29°17' W 094°55'3 5.4
2018-Jun-20 15:00N 29°19' W 094°52'3 6.1
2018-Jun-20 14:30N 29°21' W 094°50'3 5.4
2018-Jun-20 14:00N 29°23' W 094°49'4 6.9
2018-Jun-20 13:29N 29°26' W 094°50'4 7.1
2018-Jun-20 12:52N 29°30' W 094°53'3 7.1
2018-Jun-20 12:24N 29°33' W 094°55'3 7.0
2018-Jun-20 12:00N 29°36' W 094°57'3 5.6
2018-Jun-20 11:27N 29°37' W 094°60'2 3.3
2018-Jun-20 10:59N 29°37' W 095°01'0 0.0
2018-Jun-20 10:07N 29°37' W 095°01'0 0.0
2018-Jun-20 09:57N 29°37' W 095°01'0 0.0
2018-Jun-20 09:30N 29°37' W 095°01'0 0.0
2018-Jun-20 09:00N 29°37' W 095°01'0 0.0
2018-Jun-20 08:29N 29°37' W 095°01'0 0.0
2018-Jun-20 08:00N 29°37' W 095°01'0 0.0
2018-Jun-20 07:30N 29°37' W 095°01'0 0.0
2018-Jun-20 07:00N 29°37' W 095°01'0 0.0
2018-Jun-20 06:30N 29°37' W 095°01'0 0.0
2018-Jun-20 06:00N 29°37' W 095°01'0 0.0
2018-Jun-20 05:30N 29°37' W 095°01'0 0.0
2018-Jun-20 05:00N 29°37' W 095°01'0 0.1
2018-Jun-20 04:28N 29°37' W 095°01'0 0.2
2018-Jun-20 04:00N 29°37' W 095°01'0 0.0
2018-Jun-20 03:29N 29°37' W 095°01'0 0.0
2018-Jun-20 03:00N 29°37' W 095°01'0 0.0
2018-Jun-20 02:29N 29°37' W 095°01'0 0.0
2018-Jun-20 02:00N 29°37' W 095°01'0 0.0
2018-Jun-20 01:30N 29°37' W 095°01'0 0.0
2018-Jun-20 01:00N 29°37' W 095°01'0 0.0
2018-Jun-20 00:29N 29°37' W 095°01'0 0.0
2018-Jun-20 00:00N 29°37' W 095°01'0 0.0
2018-Jun-19 23:30N 29°37' W 095°01'0 0.0
2018-Jun-19 22:58N 29°37' W 095°01'0 0.0
2018-Jun-19 22:23N 29°37' W 095°01'0 0.0
2018-Jun-19 21:38N 29°37' W 095°01'0 0.0
2018-Jun-19 21:12N 29°37' W 095°01'0 0.0
2018-Jun-19 20:52N 29°37' W 095°01'0 0.0
2018-Jun-19 20:19N 29°37' W 095°01'0 0.0
2018-Jun-19 20:00N 29°37' W 095°01'0 0.0
2018-Jun-19 19:29N 29°37' W 095°01'0 0.0
2018-Jun-19 18:59N 29°37' W 095°01'0 0.0
2018-Jun-19 18:30N 29°37' W 095°01'0 0.0
2018-Jun-19 17:58N 29°37' W 095°01'3 5.9
2018-Jun-19 17:25N 29°37' W 094°58'4 7.6
2018-Jun-19 16:55N 29°34' W 094°55'11 7.8
2018-Jun-19 15:29N 29°24' W 094°49'3 6.2
2018-Jun-19 14:59N 29°21' W 094°49'3 6.1
2018-Jun-19 14:30N 29°19' W 094°52'3 5.8
2018-Jun-19 14:00N 29°17' W 094°55'3 6.4
2018-Jun-19 13:30N 29°17' W 094°58'3 6.2
2018-Jun-19 13:00N 29°15' W 095°01'3 6.2
2018-Jun-19 12:30N 29°12' W 095°03'3 6.3
2018-Jun-19 12:00N 29°11' W 095°06'2 5.0
2018-Jun-19 11:30N 29°09' W 095°09'3 6.2
2018-Jun-19 11:00N 29°07' W 095°11'3 5.7
2018-Jun-19 10:30N 29°05' W 095°13'3 5.4
2018-Jun-19 10:00N 29°02' W 095°14'3 5.2
2018-Jun-19 09:30N 28°60' W 095°15'3 5.1
2018-Jun-19 08:59N 28°58' W 095°17'3 0.1
2018-Jun-18 06:47N 28°56' W 095°19'2 6.9
2018-Jun-18 06:28N 28°57' W 095°18'3 7.0
2018-Jun-18 06:00N 28°60' W 095°15'3 6.7
2018-Jun-18 05:30N 29°03' W 095°13'3 6.4
2018-Jun-18 05:00N 29°06' W 095°12'3 6.2
2018-Jun-18 04:30N 29°08' W 095°10'3 6.1
2018-Jun-18 04:00N 29°10' W 095°07'3 5.6
2018-Jun-18 03:30N 29°12' W 095°04'3 6.0
2018-Jun-18 03:00N 29°14' W 095°02'3 6.2
2018-Jun-18 02:30N 29°16' W 094°59'3 5.9
2018-Jun-18 02:00N 29°17' W 094°56'3 5.8
2018-Jun-18 01:30N 29°18' W 094°53'3 6.2
2018-Jun-18 01:00N 29°20' W 094°50'3 5.2
2018-Jun-18 00:30N 29°22' W 094°48'3 6.5
2018-Jun-17 23:58N 29°25' W 094°50'4 6.7
2018-Jun-17 23:25N 29°28' W 094°51'6 6.6
2018-Jun-17 22:34N 29°33' W 094°55'1 6.6
2018-Jun-17 22:29N 29°34' W 094°55'3 6.7
2018-Jun-17 22:00N 29°36' W 094°57'3 5.5
2018-Jun-17 21:30N 29°37' W 095°00'1 2.0
2018-Jun-17 20:59N 29°37' W 095°01'0 0.0
2018-Jun-17 20:30N 29°37' W 095°01'0 0.0
2018-Jun-17 20:00N 29°37' W 095°01'0 0.0
2018-Jun-17 19:30N 29°37' W 095°01'0 0.0
2018-Jun-17 19:00N 29°37' W 095°01'0 0.0
2018-Jun-17 18:30N 29°37' W 095°01'0 0.0
2018-Jun-17 18:00N 29°37' W 095°01'0 0.0
2018-Jun-17 17:30N 29°37' W 095°01'0 0.0
2018-Jun-17 17:00N 29°37' W 095°01'0 0.0
2018-Jun-17 16:30N 29°37' W 095°01'0 0.0
2018-Jun-17 16:00N 29°37' W 095°01'0 0.0
2018-Jun-17 15:30N 29°37' W 095°01'0 0.2
2018-Jun-17 15:00N 29°37' W 095°01'0 0.0
2018-Jun-17 14:30N 29°37' W 095°01'0 0.0
2018-Jun-17 13:53N 29°37' W 095°01'0 0.0
2018-Jun-17 13:27N 29°37' W 095°01'0 0.0
2018-Jun-17 12:59N 29°37' W 095°01'0 0.0
2018-Jun-17 12:29N 29°37' W 095°01'0 0.0
2018-Jun-17 12:00N 29°37' W 095°01'0 0.0
2018-Jun-17 11:30N 29°37' W 095°01'0 0.0
2018-Jun-17 11:00N 29°37' W 095°01'1 1.7
2018-Jun-17 10:30N 29°37' W 095°00'3 5.1
2018-Jun-17 10:00N 29°38' W 094°58'3 6.0
2018-Jun-17 09:30N 29°41' W 094°59'  
Track history (hours):
 
Tides and Currents Weather Stations Pressure Air Temp Water Temp Dewpoint Dewpoint Depression Visibility Wind Speed Wind Dir Waves Ship Positions

Jerry W. Tichenor

Owner: Blessey Enterprises, Inc., harahan, LA. More information available from US FCC via Universal Licensing System and Coast Guard Vessel Documentation Center.

Last reported at 2018-Jun-25 09:18 UTC. Time now 2018-Jun-25 10:07 UTC.
Position N 28°54' W 095°22'.

Length 92 m; draft 9.6 m.

Type: Towing. MMSI: 366971520.

Date/timePositionNaut miles runAvg speedWind from/ knotsBaromVisibWave heightAir tempDewpointWater temp
2018-Jun-25 09:18N 28°54' W 095°22'2 0.0
2018-Jun-23 12:04N 28°54' W 095°24'2 0.3
2018-Jun-23 06:43N 28°54' W 095°22'1 1.7
2018-Jun-23 06:23N 28°55' W 095°21'3 5.9
2018-Jun-23 05:51N 28°57' W 095°19'2 4.8
2018-Jun-23 05:30N 28°58' W 095°17'2 4.7
2018-Jun-23 05:00N 28°60' W 095°15'3 5.5
2018-Jun-23 04:30N 29°02' W 095°14'3 5.9
2018-Jun-23 04:00N 29°05' W 095°13'3 5.7
2018-Jun-23 03:30N 29°07' W 095°11'3 5.8
2018-Jun-23 03:00N 29°09' W 095°09'3 6.1
2018-Jun-23 02:29N 29°11' W 095°06'3 6.2
2018-Jun-23 02:00N 29°12' W 095°03'3 5.7
2018-Jun-23 01:30N 29°15' W 095°01'3 5.7
2018-Jun-23 01:00N 29°17' W 094°59'2 4.7
2018-Jun-23 00:30N 29°17' W 094°56'2 4.4
2018-Jun-23 00:00N 29°18' W 094°53'3 5.0
2018-Jun-22 23:30N 29°19' W 094°51'3 5.0
2018-Jun-22 23:01N 29°21' W 094°49'0 0.2
2018-Jun-22 22:30N 29°21' W 094°49'0 0.2
2018-Jun-22 22:00N 29°21' W 094°49'3 6.7
2018-Jun-22 21:30N 29°19' W 094°52'3 6.4
2018-Jun-22 21:00N 29°17' W 094°56'3 6.8
2018-Jun-22 20:30N 29°16' W 094°59'3 6.6
2018-Jun-22 20:00N 29°14' W 095°02'3 6.4
2018-Jun-22 19:30N 29°12' W 095°04'3 5.9
2018-Jun-22 19:00N 29°10' W 095°07'3 6.4
2018-Jun-22 18:30N 29°08' W 095°10'3 5.8
2018-Jun-22 18:00N 29°06' W 095°12'4 6.8
2018-Jun-22 17:27N 29°02' W 095°14'3 7.1
2018-Jun-22 17:00N 28°60' W 095°15'4 7.1
2018-Jun-22 16:30N 28°57' W 095°18'6 0.1
2018-Jun-20 21:55N 28°54' W 095°24'4 4.2
2018-Jun-20 20:58N 28°56' W 095°20'3 5.5
2018-Jun-20 20:30N 28°57' W 095°18'3 5.8
2018-Jun-20 19:58N 28°60' W 095°15'3 6.1
2018-Jun-20 19:30N 29°02' W 095°14'3 5.8
2018-Jun-20 19:00N 29°05' W 095°12'3 5.6
2018-Jun-20 18:30N 29°07' W 095°11'3 5.9
2018-Jun-20 18:00N 29°09' W 095°09'3 6.0
2018-Jun-20 17:30N 29°11' W 095°06'3 6.1
2018-Jun-20 17:00N 29°12' W 095°03'3 5.8
2018-Jun-20 16:30N 29°15' W 095°01'3 5.7
2018-Jun-20 16:00N 29°17' W 094°58'3 6.0
2018-Jun-20 15:30N 29°17' W 094°55'3 5.4
2018-Jun-20 15:00N 29°19' W 094°52'3 6.1
2018-Jun-20 14:30N 29°21' W 094°50'3 5.4
2018-Jun-20 14:00N 29°23' W 094°49'4 6.9
2018-Jun-20 13:29N 29°26' W 094°50'4 7.1
2018-Jun-20 12:52N 29°30' W 094°53'3 7.1
2018-Jun-20 12:24N 29°33' W 094°55'3 7.0
2018-Jun-20 12:00N 29°36' W 094°57'3 5.6
2018-Jun-20 11:27N 29°37' W 094°60'2 3.3
2018-Jun-20 10:59N 29°37' W 095°01'0 0.0
2018-Jun-20 10:07N 29°37' W 095°01'0 0.0
2018-Jun-20 09:57N 29°37' W 095°01'0 0.0
2018-Jun-20 09:30N 29°37' W 095°01'0 0.0
2018-Jun-20 09:00N 29°37' W 095°01'0 0.0
2018-Jun-20 08:29N 29°37' W 095°01'0 0.0
2018-Jun-20 08:00N 29°37' W 095°01'0 0.0
2018-Jun-20 07:30N 29°37' W 095°01'0 0.0
2018-Jun-20 07:00N 29°37' W 095°01'0 0.0
2018-Jun-20 06:30N 29°37' W 095°01'0 0.0
2018-Jun-20 06:00N 29°37' W 095°01'0 0.0
2018-Jun-20 05:30N 29°37' W 095°01'0 0.0
2018-Jun-20 05:00N 29°37' W 095°01'0 0.1
2018-Jun-20 04:28N 29°37' W 095°01'0 0.2
2018-Jun-20 04:00N 29°37' W 095°01'0 0.0
2018-Jun-20 03:29N 29°37' W 095°01'0 0.0
2018-Jun-20 03:00N 29°37' W 095°01'0 0.0
2018-Jun-20 02:29N 29°37' W 095°01'0 0.0
2018-Jun-20 02:00N 29°37' W 095°01'0 0.0
2018-Jun-20 01:30N 29°37' W 095°01'0 0.0
2018-Jun-20 01:00N 29°37' W 095°01'0 0.0
2018-Jun-20 00:29N 29°37' W 095°01'0 0.0
2018-Jun-20 00:00N 29°37' W 095°01'0 0.0
2018-Jun-19 23:30N 29°37' W 095°01'0 0.0
2018-Jun-19 22:58N 29°37' W 095°01'0 0.0
2018-Jun-19 22:23N 29°37' W 095°01'0 0.0
2018-Jun-19 21:38N 29°37' W 095°01'0 0.0
2018-Jun-19 21:12N 29°37' W 095°01'0 0.0
2018-Jun-19 20:52N 29°37' W 095°01'0 0.0
2018-Jun-19 20:19N 29°37' W 095°01'0 0.0
2018-Jun-19 20:00N 29°37' W 095°01'0 0.0
2018-Jun-19 19:29N 29°37' W 095°01'0 0.0
2018-Jun-19 18:59N 29°37' W 095°01'0 0.0
2018-Jun-19 18:30N 29°37' W 095°01'0 0.0
2018-Jun-19 17:58N 29°37' W 095°01'3 5.9
2018-Jun-19 17:25N 29°37' W 094°58'4 7.6
2018-Jun-19 16:55N 29°34' W 094°55'11 7.8
2018-Jun-19 15:29N 29°24' W 094°49'3 6.2
2018-Jun-19 14:59N 29°21' W 094°49'3 6.1
2018-Jun-19 14:30N 29°19' W 094°52'3 5.8
2018-Jun-19 14:00N 29°17' W 094°55'3 6.4
2018-Jun-19 13:30N 29°17' W 094°58'3 6.2
2018-Jun-19 13:00N 29°15' W 095°01'3 6.2
2018-Jun-19 12:30N 29°12' W 095°03'3 6.3
2018-Jun-19 12:00N 29°11' W 095°06'2 5.0
2018-Jun-19 11:30N 29°09' W 095°09'3 6.2
2018-Jun-19 11:00N 29°07' W 095°11'3 5.7
2018-Jun-19 10:30N 29°05' W 095°13'3 5.4
2018-Jun-19 10:00N 29°02' W 095°14'3 5.2
2018-Jun-19 09:30N 28°60' W 095°15'3 5.1
2018-Jun-19 08:59N 28°58' W 095°17'3 0.1
2018-Jun-18 06:47N 28°56' W 095°19'2 6.9
2018-Jun-18 06:28N 28°57' W 095°18'3 7.0
2018-Jun-18 06:00N 28°60' W 095°15'3 6.7
2018-Jun-18 05:30N 29°03' W 095°13'3 6.4
2018-Jun-18 05:00N 29°06' W 095°12'3 6.2
2018-Jun-18 04:30N 29°08' W 095°10'3 6.1
2018-Jun-18 04:00N 29°10' W 095°07'3 5.6
2018-Jun-18 03:30N 29°12' W 095°04'3 6.0
2018-Jun-18 03:00N 29°14' W 095°02'3 6.2
2018-Jun-18 02:30N 29°16' W 094°59'3 5.9
2018-Jun-18 02:00N 29°17' W 094°56'3 5.8
2018-Jun-18 01:30N 29°18' W 094°53'3 6.2
2018-Jun-18 01:00N 29°20' W 094°50'3 5.2
2018-Jun-18 00:30N 29°22' W 094°48'3 6.5
2018-Jun-17 23:58N 29°25' W 094°50'4 6.7
2018-Jun-17 23:25N 29°28' W 094°51'6 6.6
2018-Jun-17 22:34N 29°33' W 094°55'1 6.6
2018-Jun-17 22:29N 29°34' W 094°55'3 6.7
2018-Jun-17 22:00N 29°36' W 094°57'3 5.5
2018-Jun-17 21:30N 29°37' W 095°00'1 2.0
2018-Jun-17 20:59N 29°37' W 095°01'0 0.0
2018-Jun-17 20:30N 29°37' W 095°01'0 0.0
2018-Jun-17 20:00N 29°37' W 095°01'0 0.0
2018-Jun-17 19:30N 29°37' W 095°01'0 0.0
2018-Jun-17 19:00N 29°37' W 095°01'0 0.0
2018-Jun-17 18:30N 29°37' W 095°01'0 0.0
2018-Jun-17 18:00N 29°37' W 095°01'0 0.0
2018-Jun-17 17:30N 29°37' W 095°01'0 0.0
2018-Jun-17 17:00N 29°37' W 095°01'0 0.0
2018-Jun-17 16:30N 29°37' W 095°01'0 0.0
2018-Jun-17 16:00N 29°37' W 095°01'0 0.0
2018-Jun-17 15:30N 29°37' W 095°01'0 0.2
2018-Jun-17 15:00N 29°37' W 095°01'0 0.0
2018-Jun-17 14:30N 29°37' W 095°01'0 0.0
2018-Jun-17 13:53N 29°37' W 095°01'0 0.0
2018-Jun-17 13:27N 29°37' W 095°01'0 0.0
2018-Jun-17 12:59N 29°37' W 095°01'0 0.0
2018-Jun-17 12:29N 29°37' W 095°01'0 0.0
2018-Jun-17 12:00N 29°37' W 095°01'0 0.0
2018-Jun-17 11:30N 29°37' W 095°01'0 0.0
2018-Jun-17 11:00N 29°37' W 095°01'1 1.7
2018-Jun-17 10:30N 29°37' W 095°00'3 5.1
2018-Jun-17 10:00N 29°38' W 094°58'3 6.0
2018-Jun-17 09:30N 29°41' W 094°59'  

Dump ship's entire track history